AFR248 LFBD-LPPR
Flight info
| Callsign | AFR248 |
|---|---|
| Flight time | N/A |
| Altitude | 33000 |
| Route | VAVIX DCT BTZ DCT URUNA DCT SSN DCT VRA DCT NEA DCT ZMR L155 ADORO DCT INKIT |
| Aircraft | A20N/M-SDE2E3FGHIRWXY/LB1 |
Departure
| Time | 2026-04-29 16:24 |
|---|---|
| Airport | Bordeaux–Mérignac Airport (LFBD) |
Arrival
| Time | N/A |
|---|---|
| Airport | Francisco de Sá Carneiro Airport (LPPR) |
| Time | Latitude | Longitude | Altitude | Speed | Heading |
|---|---|---|---|---|---|
| 2026-04-29 16:22 | 44.83152 | -0.72055 | 164 ft | 20 kts | 240° |
| 2026-04-29 16:22 | 44.83048 | -0.72131 | 164 ft | 16 kts | 197° |
| 2026-04-29 16:23 | 44.82989 | -0.72111 | 164 ft | 0 kts | 103° |
| 2026-04-29 16:23 | 44.82948 | -0.71911 | 166 ft | 54 kts | 107° |
| 2026-04-29 16:24 | 44.82775 | -0.71092 | 164 ft | 117 kts | 106° |
| 2026-04-29 16:24 | 44.82495 | -0.69879 | 482 ft | 130 kts | 119° |
| 2026-04-29 16:24 | 44.81813 | -0.69075 | 958 ft | 140 kts | 162° |
| 2026-04-29 16:24 | 44.80811 | -0.69209 | 1382 ft | 157 kts | 201° |
| 2026-04-29 16:25 | 44.79833 | -0.70035 | 1876 ft | 166 kts | 213° |
| 2026-04-29 16:25 | 44.78863 | -0.71017 | 2376 ft | 178 kts | 204° |
| 2026-04-29 16:25 | 44.77639 | -0.71505 | 2798 ft | 191 kts | 185° |
| 2026-04-29 16:25 | 44.76251 | -0.71693 | 3264 ft | 214 kts | 180° |
| 2026-04-29 16:26 | 44.74693 | -0.71709 | 3917 ft | 234 kts | 178° |
| 2026-04-29 16:26 | 44.72990 | -0.71637 | 4643 ft | 254 kts | 177° |
| 2026-04-29 16:26 | 44.71196 | -0.71535 | 5674 ft | 258 kts | 177° |
| 2026-04-29 16:26 | 44.69391 | -0.71433 | 6754 ft | 261 kts | 177° |
| 2026-04-29 16:27 | 44.67569 | -0.71337 | 7791 ft | 265 kts | 178° |
| 2026-04-29 16:27 | 44.65710 | -0.71243 | 8836 ft | 268 kts | 178° |
| 2026-04-29 16:27 | 44.63830 | -0.71150 | 9874 ft | 272 kts | 178° |
| 2026-04-29 16:27 | 44.61900 | -0.71056 | 10611 ft | 287 kts | 178° |
| 2026-04-29 16:28 | 44.59820 | -0.70953 | 11002 ft | 311 kts | 178° |
| 2026-04-29 16:28 | 44.57588 | -0.70844 | 11535 ft | 327 kts | 178° |
| 2026-04-29 16:28 | 44.55301 | -0.70733 | 12459 ft | 331 kts | 178° |
| 2026-04-29 16:28 | 44.53017 | -0.70623 | 13356 ft | 335 kts | 178° |
| 2026-04-29 16:29 | 44.50677 | -0.70509 | 14186 ft | 339 kts | 178° |
| 2026-04-29 16:29 | 44.48298 | -0.70394 | 15008 ft | 343 kts | 178° |
| 2026-04-29 16:29 | 44.45898 | -0.70277 | 15817 ft | 346 kts | 178° |
| 2026-04-29 16:29 | 44.43471 | -0.70160 | 16621 ft | 350 kts | 178° |
| 2026-04-29 16:30 | 44.41023 | -0.70041 | 17400 ft | 354 kts | 178° |
| 2026-04-29 16:30 | 44.38550 | -0.69921 | 18172 ft | 358 kts | 178° |
| 2026-04-29 16:30 | 44.36045 | -0.69800 | 18848 ft | 362 kts | 178° |
| 2026-04-29 16:30 | 44.33513 | -0.69678 | 19528 ft | 365 kts | 178° |
| 2026-04-29 16:31 | 44.30961 | -0.69577 | 20188 ft | 369 kts | 181° |
| 2026-04-29 16:31 | 44.28412 | -0.70053 | 20838 ft | 372 kts | 194° |
| 2026-04-29 16:31 | 44.25987 | -0.71370 | 21490 ft | 378 kts | 207° |
| 2026-04-29 16:31 | 44.23789 | -0.73430 | 22129 ft | 383 kts | 214° |
| 2026-04-29 16:32 | 44.21666 | -0.75620 | 22754 ft | 386 kts | 214° |
| 2026-04-29 16:32 | 44.20198 | -0.77132 | 23209 ft | 388 kts | 214° |
| 2026-04-29 16:32 | 44.17312 | -0.80091 | 24033 ft | 391 kts | 214° |
| 2026-04-29 16:32 | 44.15108 | -0.82341 | 24606 ft | 393 kts | 214° |
| 2026-04-29 16:33 | 44.10667 | -0.86862 | 25700 ft | 397 kts | 213° |
| 2026-04-29 16:33 | 44.08426 | -0.89141 | 26232 ft | 399 kts | 213° |
| 2026-04-29 16:33 | 44.06176 | -0.91426 | 26745 ft | 402 kts | 213° |
| 2026-04-29 16:34 | 44.03917 | -0.93716 | 27246 ft | 404 kts | 213° |
| 2026-04-29 16:34 | 44.01664 | -0.95998 | 27720 ft | 406 kts | 213° |
| 2026-04-29 16:34 | 43.99343 | -0.98346 | 28196 ft | 409 kts | 213° |
| 2026-04-29 16:34 | 43.97039 | -1.00676 | 28646 ft | 411 kts | 213° |
| 2026-04-29 16:35 | 43.94755 | -1.02981 | 29067 ft | 413 kts | 213° |
| 2026-04-29 16:35 | 43.92423 | -1.05334 | 29480 ft | 415 kts | 213° |
| 2026-04-29 16:35 | 43.90079 | -1.07697 | 29901 ft | 418 kts | 213° |
| 2026-04-29 16:35 | 43.87710 | -1.10081 | 30278 ft | 420 kts | 213° |
| 2026-04-29 16:36 | 43.85342 | -1.12463 | 30639 ft | 422 kts | 213° |
| 2026-04-29 16:36 | 43.82961 | -1.14854 | 31052 ft | 423 kts | 213° |
| 2026-04-29 16:36 | 43.80571 | -1.17249 | 31450 ft | 424 kts | 213° |
| 2026-04-29 16:36 | 43.78188 | -1.19638 | 31952 ft | 422 kts | 213° |
| 2026-04-29 16:37 | 43.75807 | -1.22023 | 32422 ft | 421 kts | 214° |
| 2026-04-29 16:37 | 43.73436 | -1.24395 | 32670 ft | 420 kts | 214° |
| 2026-04-29 16:37 | 43.71073 | -1.26758 | 32775 ft | 417 kts | 214° |
| 2026-04-29 16:37 | 43.69518 | -1.28311 | 32836 ft | 417 kts | 214° |
| 2026-04-29 16:38 | 43.64037 | -1.33776 | 32883 ft | 417 kts | 214° |
| 2026-04-29 16:38 | 43.59326 | -1.38464 | 32863 ft | 418 kts | 214° |
| 2026-04-29 16:39 | 43.54603 | -1.43155 | 32861 ft | 418 kts | 214° |
| 2026-04-29 16:39 | 43.49892 | -1.47868 | 32856 ft | 419 kts | 216° |
| 2026-04-29 16:40 | 43.46342 | -1.52413 | 32850 ft | 421 kts | 225° |
| 2026-04-29 16:40 | 43.42823 | -1.58888 | 32854 ft | 423 kts | 234° |
| 2026-04-29 16:41 | 43.39579 | -1.65630 | 32828 ft | 422 kts | 233° |
| 2026-04-29 16:41 | 43.36339 | -1.72300 | 32820 ft | 420 kts | 233° |
| 2026-04-29 16:42 | 43.33089 | -1.78976 | 32831 ft | 422 kts | 233° |
| 2026-04-29 16:42 | 43.29718 | -1.85591 | 32830 ft | 421 kts | 230° |
| 2026-04-29 16:43 | 43.26177 | -1.92004 | 32879 ft | 422 kts | 230° |
| 2026-04-29 16:43 | 43.22610 | -1.98463 | 32876 ft | 424 kts | 230° |
| 2026-04-29 16:44 | 43.19052 | -2.04895 | 32869 ft | 425 kts | 230° |
| 2026-04-29 16:44 | 43.15466 | -2.11360 | 32853 ft | 425 kts | 230° |
| 2026-04-29 16:45 | 43.11918 | -2.17747 | 32849 ft | 424 kts | 230° |
| 2026-04-29 16:45 | 43.08345 | -2.24158 | 32875 ft | 424 kts | 230° |
| 2026-04-29 16:46 | 43.04761 | -2.30581 | 32865 ft | 423 kts | 230° |
| 2026-04-29 16:46 | 43.01197 | -2.36954 | 32850 ft | 422 kts | 229° |
| 2026-04-29 16:47 | 42.97610 | -2.43347 | 32861 ft | 425 kts | 230° |
| 2026-04-29 16:47 | 42.94043 | -2.49699 | 32834 ft | 423 kts | 230° |
| 2026-04-29 16:48 | 42.90453 | -2.56077 | 32838 ft | 423 kts | 230° |
| 2026-04-29 16:48 | 42.86865 | -2.62436 | 32881 ft | 423 kts | 230° |
| 2026-04-29 16:49 | 42.83267 | -2.68798 | 32874 ft | 423 kts | 230° |
| 2026-04-29 16:49 | 42.79671 | -2.75144 | 32870 ft | 423 kts | 230° |
| 2026-04-29 16:50 | 42.76069 | -2.81487 | 32846 ft | 424 kts | 230° |
| 2026-04-29 16:50 | 42.72463 | -2.87829 | 32846 ft | 424 kts | 230° |
| 2026-04-29 16:51 | 42.68928 | -2.94183 | 32848 ft | 424 kts | 230° |
| 2026-04-29 16:51 | 42.65373 | -3.00598 | 32846 ft | 424 kts | 230° |
| 2026-04-29 16:52 | 42.61812 | -3.06993 | 32850 ft | 425 kts | 230° |
| 2026-04-29 16:52 | 42.58234 | -3.13393 | 32857 ft | 426 kts | 230° |
| 2026-04-29 16:53 | 42.54660 | -3.19771 | 32875 ft | 423 kts | 230° |
| 2026-04-29 16:53 | 42.52889 | -3.22929 | 33543 ft | 414 kts | 230° |
| 2026-04-29 16:53 | 42.51190 | -3.25961 | 34673 ft | 393 kts | 230° |
| 2026-04-29 16:54 | 42.49578 | -3.28833 | 35770 ft | 372 kts | 230° |
| 2026-04-29 16:54 | 42.48067 | -3.31521 | 36668 ft | 358 kts | 230° |
| 2026-04-29 16:54 | 42.46553 | -3.34204 | 36879 ft | 361 kts | 230° |
| 2026-04-29 16:54 | 42.45021 | -3.36913 | 37012 ft | 363 kts | 230° |
| 2026-04-29 16:55 | 42.43475 | -3.39647 | 37159 ft | 366 kts | 230° |
| 2026-04-29 16:55 | 42.41929 | -3.42384 | 37399 ft | 367 kts | 230° |
| 2026-04-29 16:55 | 42.40379 | -3.45125 | 37562 ft | 369 kts | 230° |
| 2026-04-29 16:55 | 42.38805 | -3.47906 | 37662 ft | 373 kts | 230° |
| 2026-04-29 16:56 | 42.37226 | -3.50694 | 37850 ft | 374 kts | 230° |
| 2026-04-29 16:56 | 42.35637 | -3.53496 | 38038 ft | 375 kts | 230° |
| 2026-04-29 16:56 | 42.32434 | -3.59136 | 38261 ft | 381 kts | 230° |
| 2026-04-29 16:57 | 42.30816 | -3.61983 | 38440 ft | 381 kts | 230° |
| 2026-04-29 16:57 | 42.29196 | -3.64830 | 38582 ft | 383 kts | 230° |
| 2026-04-29 16:57 | 42.25946 | -3.70533 | 38801 ft | 387 kts | 230° |
| 2026-04-29 16:58 | 42.24301 | -3.73415 | 38909 ft | 388 kts | 230° |
| 2026-04-29 16:58 | 42.22650 | -3.76306 | 39007 ft | 390 kts | 230° |
| 2026-04-29 16:58 | 42.20988 | -3.79211 | 39125 ft | 391 kts | 230° |
| 2026-04-29 16:58 | 42.19328 | -3.82111 | 39256 ft | 392 kts | 230° |
| 2026-04-29 16:59 | 42.15969 | -3.87970 | 39361 ft | 398 kts | 230° |
| 2026-04-29 16:59 | 42.12537 | -3.93944 | 39350 ft | 407 kts | 230° |
| 2026-04-29 17:00 | 42.09036 | -4.00027 | 39365 ft | 415 kts | 230° |
| 2026-04-29 17:00 | 42.05482 | -4.06193 | 39366 ft | 420 kts | 231° |
| 2026-04-29 17:01 | 42.02307 | -4.12793 | 39365 ft | 422 kts | 240° |
| 2026-04-29 17:01 | 41.99864 | -4.19992 | 39365 ft | 424 kts | 244° |
| 2026-04-29 17:02 | 41.97567 | -4.27289 | 39365 ft | 423 kts | 244° |
| 2026-04-29 17:02 | 41.95270 | -4.34513 | 39365 ft | 423 kts | 244° |
| 2026-04-29 17:03 | 41.92952 | -4.41778 | 39363 ft | 423 kts | 244° |
| 2026-04-29 17:03 | 41.90626 | -4.49047 | 39368 ft | 424 kts | 244° |
| 2026-04-29 17:04 | 41.88295 | -4.56312 | 39376 ft | 424 kts | 244° |
| 2026-04-29 17:04 | 41.85956 | -4.63582 | 39373 ft | 424 kts | 244° |
| 2026-04-29 17:05 | 41.83614 | -4.70841 | 39387 ft | 424 kts | 244° |
| 2026-04-29 17:05 | 41.81271 | -4.78088 | 39389 ft | 423 kts | 244° |
| 2026-04-29 17:06 | 41.78924 | -4.85325 | 39388 ft | 423 kts | 244° |
| 2026-04-29 17:06 | 41.76572 | -4.92560 | 39385 ft | 423 kts | 244° |
| 2026-04-29 17:07 | 41.74234 | -4.99731 | 39382 ft | 423 kts | 244° |
| 2026-04-29 17:07 | 41.71874 | -5.06951 | 39376 ft | 423 kts | 244° |
| 2026-04-29 17:08 | 41.69514 | -5.14153 | 39372 ft | 422 kts | 244° |
| 2026-04-29 17:08 | 41.67147 | -5.21357 | 39362 ft | 422 kts | 244° |
| 2026-04-29 17:09 | 41.64778 | -5.28545 | 39356 ft | 422 kts | 244° |
| 2026-04-29 17:09 | 41.62407 | -5.35725 | 39335 ft | 423 kts | 244° |
| 2026-04-29 17:10 | 41.60041 | -5.42867 | 39344 ft | 423 kts | 244° |
| 2026-04-29 17:10 | 41.57654 | -5.50055 | 39344 ft | 423 kts | 244° |
| 2026-04-29 17:11 | 41.55268 | -5.57235 | 39349 ft | 423 kts | 245° |
| 2026-04-29 17:11 | 41.53374 | -5.64698 | 39345 ft | 427 kts | 253° |
| 2026-04-29 17:12 | 41.52382 | -5.72541 | 39353 ft | 430 kts | 262° |
| 2026-04-29 17:12 | 41.51929 | -5.79156 | 39342 ft | 431 kts | 262° |
| 2026-04-29 17:13 | 41.51266 | -5.88401 | 39355 ft | 431 kts | 261° |
| 2026-04-29 17:13 | 41.50682 | -5.96365 | 39351 ft | 431 kts | 261° |
| 2026-04-29 17:14 | 41.50092 | -6.04334 | 39354 ft | 432 kts | 261° |
| 2026-04-29 17:14 | 41.49495 | -6.12311 | 39352 ft | 433 kts | 261° |